Malolo — ABC1234 — position and weather

sailwx.info

Track history (hours):
 
Tides and Currents Weather Stations Pressure Air Temp Water Temp Dewpoint Dewpoint Depression Visibility Wind Speed Wind Dir Waves Ship Positions

Malolo

Last reported at 2017-Jun-26 22:08 UTC. Time now 2017-Jun-28 20:50 UTC.
Position N 32°41' W 117°14'.

Length 14 m.

Type: Sailing vessel. MMSI: 338047815.

Date/timePositionNaut miles runAvg speedWind from/ knotsBaromVisibWave heightAir tempDewpointWater temp
2017-Jun-26 22:08N 32°41' W 117°14'1 2.3
2017-Jun-26 21:44N 32°40' W 117°14'8914.8
2017-Jun-26 15:46N 33°46' W 118°26'2 6.6
2017-Jun-26 15:30N 33°44' W 118°25'3 6.4
2017-Jun-26 14:59N 33°43' W 118°21'8227.7
2017-Jun-26 12:00N 32°43' W 117°14'  
2017-Jun-20 01:46N 32°43' W 117°14'0 0.0
2017-Jun-19 01:10N 32°43' W 117°14'8011.9
2017-Jun-18 18:27N 33°43' W 118°17'1 1.5
2017-Jun-18 17:30N 33°43' W 118°15'3 5.9
2017-Jun-18 17:00N 33°41' W 118°18'4 5.0
2017-Jun-18 16:18N 33°38' W 118°21'2 5.3
2017-Jun-18 15:50N 33°36' W 118°22'10 5.0
2017-Jun-18 13:54N 33°28' W 118°29'1 0.0
2017-Jun-17 19:13N 33°28' W 118°29'524.4
2017-Jun-17 19:00N 33°32' W 118°25'1121.7
2017-Jun-17 18:30N 33°40' W 118°17'3 5.8
2017-Jun-17 17:55N 33°44' W 118°16'1 0.1
2017-Jun-17 09:24N 33°43' W 118°17'8011.4
2017-Jun-17 02:22N 32°43' W 117°14'  
Track history (hours):
 
Tides and Currents Weather Stations Pressure Air Temp Water Temp Dewpoint Dewpoint Depression Visibility Wind Speed Wind Dir Waves Ship Positions

Malolo

Last reported at 2017-Jun-26 22:08 UTC. Time now 2017-Jun-28 20:50 UTC.
Position N 32°41' W 117°14'.

Length 14 m.

Type: Sailing vessel. MMSI: 338047815.

Date/timePositionNaut miles runAvg speedWind from/ knotsBaromVisibWave heightAir tempDewpointWater temp
2017-Jun-26 22:08N 32°41' W 117°14'1 2.3
2017-Jun-26 21:44N 32°40' W 117°14'8914.8
2017-Jun-26 15:46N 33°46' W 118°26'2 6.6
2017-Jun-26 15:30N 33°44' W 118°25'3 6.4
2017-Jun-26 14:59N 33°43' W 118°21'8227.7
2017-Jun-26 12:00N 32°43' W 117°14'  
2017-Jun-20 01:46N 32°43' W 117°14'0 0.0
2017-Jun-19 01:10N 32°43' W 117°14'8011.9
2017-Jun-18 18:27N 33°43' W 118°17'1 1.5
2017-Jun-18 17:30N 33°43' W 118°15'3 5.9
2017-Jun-18 17:00N 33°41' W 118°18'4 5.0
2017-Jun-18 16:18N 33°38' W 118°21'2 5.3
2017-Jun-18 15:50N 33°36' W 118°22'10 5.0
2017-Jun-18 13:54N 33°28' W 118°29'1 0.0
2017-Jun-17 19:13N 33°28' W 118°29'524.4
2017-Jun-17 19:00N 33°32' W 118°25'1121.7
2017-Jun-17 18:30N 33°40' W 118°17'3 5.8
2017-Jun-17 17:55N 33°44' W 118°16'1 0.1
2017-Jun-17 09:24N 33°43' W 118°17'8011.4
2017-Jun-17 02:22N 32°43' W 117°14'  

Dump ship's entire track history